createdAt,value
2019-05-25T00:00:17.779Z,32.00
2019-05-25T00:00:50.809Z,32.00
2019-05-25T00:01:25.261Z,32.65
2019-05-25T00:01:58.364Z,32.00
2019-05-25T00:02:31.407Z,32.40
2019-05-25T00:03:04.343Z,32.15
2019-05-25T00:03:37.283Z,31.65
2019-05-25T00:04:10.181Z,32.23
2019-05-25T00:04:43.208Z,31.95
2019-05-25T00:05:17.502Z,32.30
2019-05-25T00:05:50.430Z,31.73
2019-05-25T00:06:23.468Z,32.60
2019-05-25T00:06:56.516Z,32.58
2019-05-25T00:07:29.435Z,32.53
2019-05-25T00:08:02.445Z,32.50
2019-05-25T00:08:35.334Z,32.35
2019-05-25T00:09:08.365Z,32.53
2019-05-25T00:09:41.393Z,32.40
2019-05-25T00:10:14.446Z,32.42
2019-05-25T00:10:47.538Z,32.67
2019-05-25T00:11:20.619Z,31.90
2019-05-25T00:11:53.596Z,32.75
2019-05-25T00:12:26.677Z,32.48
2019-05-25T00:12:59.794Z,32.63
2019-05-25T00:13:33.957Z,32.65
2019-05-25T00:14:06.995Z,32.53
2019-05-25T00:14:39.936Z,32.73
2019-05-25T00:15:13.171Z,32.80
2019-05-25T00:15:46.002Z,31.77
2019-05-25T00:16:18.895Z,33.15
2019-05-25T00:16:52.069Z,32.90
2019-05-25T00:17:24.858Z,32.38
2019-05-25T00:17:57.881Z,31.80
2019-05-25T00:18:30.704Z,32.40
2019-05-25T00:19:03.855Z,32.33
2019-05-25T00:19:36.720Z,32.00
2019-05-25T00:20:10.003Z,32.93
2019-05-25T00:20:42.913Z,32.20
2019-05-25T00:21:16.023Z,32.20
2019-05-25T00:21:49.232Z,32.45
2019-05-25T00:22:22.233Z,32.48
2019-05-25T00:22:55.227Z,32.50
2019-05-25T00:23:28.259Z,32.13
2019-05-25T00:24:11.748Z,32.30
2019-05-25T00:24:36.311Z,32.23
2019-05-25T00:25:09.418Z,32.65
2019-05-25T00:25:42.549Z,32.23
2019-05-25T00:26:15.455Z,32.28
2019-05-25T00:26:49.491Z,32.08
2019-05-25T00:27:22.400Z,32.08
2019-05-25T00:27:55.499Z,32.40
2019-05-25T00:28:30.055Z,31.90
2019-05-25T00:29:04.696Z,32.35
2019-05-25T00:29:37.663Z,31.65
2019-05-25T00:30:11.221Z,32.23
2019-05-25T00:30:44.356Z,32.00
2019-05-25T00:31:17.615Z,32.38
2019-05-25T00:31:50.488Z,31.95
2019-05-25T00:32:23.557Z,32.28
2019-05-25T00:32:56.717Z,31.70
2019-05-25T00:33:29.780Z,32.73
2019-05-25T00:34:02.889Z,31.85
2019-05-25T00:34:35.930Z,32.10
2019-05-25T00:35:09.257Z,32.28
2019-05-25T00:35:42.652Z,32.42
2019-05-25T00:36:16.593Z,32.13
2019-05-25T00:36:49.558Z,32.20
2019-05-25T00:37:22.683Z,32.30
2019-05-25T00:37:55.821Z,32.23
2019-05-25T00:38:28.827Z,31.23
2019-05-25T00:39:01.893Z,32.20
2019-05-25T00:39:35.893Z,32.50
2019-05-25T00:40:09.922Z,31.90
2019-05-25T00:40:42.752Z,31.82
2019-05-25T00:41:15.667Z,31.97
2019-05-25T00:41:48.744Z,32.23
2019-05-25T00:42:21.765Z,31.93
2019-05-25T00:42:54.994Z,32.48
2019-05-25T00:43:28.432Z,32.30
2019-05-25T00:44:02.240Z,31.80
2019-05-25T00:44:36.376Z,32.50
2019-05-25T00:45:09.723Z,32.40
2019-05-25T00:45:42.748Z,32.13
2019-05-25T00:46:16.318Z,32.20
2019-05-25T00:46:49.315Z,32.05
2019-05-25T00:47:22.413Z,32.15
2019-05-25T00:47:55.262Z,32.30
2019-05-25T00:48:28.341Z,32.70
2019-05-25T00:49:01.456Z,32.50
2019-05-25T00:49:34.595Z,31.95
2019-05-25T00:50:07.962Z,32.08
2019-05-25T00:50:40.976Z,31.93
2019-05-25T00:51:13.935Z,31.82
2019-05-25T00:51:46.977Z,32.40
2019-05-25T00:52:20.063Z,31.65
2019-05-25T00:52:54.614Z,32.50
2019-05-25T00:53:27.547Z,32.10
2019-05-25T00:54:01.549Z,32.03
2019-05-25T00:54:34.613Z,31.95
2019-05-25T00:55:08.048Z,31.93
2019-05-25T00:55:41.179Z,32.08
2019-05-25T00:56:14.104Z,31.70
2019-05-25T00:56:48.887Z,32.38
2019-05-25T00:57:21.700Z,31.68
2019-05-25T00:57:54.918Z,32.00
2019-05-25T00:58:27.968Z,32.28
2019-05-25T00:59:01.046Z,32.15
2019-05-25T00:59:34.139Z,31.95
2019-05-25T01:00:09.004Z,32.53
2019-05-25T01:00:42.436Z,31.87
2019-05-25T01:01:15.403Z,32.23
2019-05-25T01:01:48.243Z,31.62
2019-05-25T01:02:21.368Z,32.25
2019-05-25T01:02:54.397Z,31.62
2019-05-25T01:03:27.328Z,32.15
2019-05-25T01:04:00.263Z,31.70
2019-05-25T01:04:33.293Z,31.73
2019-05-25T01:05:06.507Z,31.87
2019-05-25T01:05:39.609Z,32.38
2019-05-25T01:06:12.500Z,32.10
2019-05-25T01:06:47.415Z,32.28
2019-05-25T01:07:20.441Z,32.13
2019-05-25T01:07:53.504Z,31.97
2019-05-25T01:08:26.736Z,32.08
2019-05-25T01:08:59.980Z,32.00
2019-05-25T01:09:33.105Z,31.75
2019-05-25T01:10:06.907Z,32.63
2019-05-25T01:10:39.831Z,32.40
2019-05-25T01:11:12.790Z,31.80
2019-05-25T01:11:45.581Z,31.60
2019-05-25T01:12:18.933Z,31.68
2019-05-25T01:12:51.855Z,31.62
2019-05-25T01:13:24.903Z,32.10
2019-05-25T01:13:57.801Z,32.10
2019-05-25T01:14:31.872Z,32.10
2019-05-25T01:15:05.627Z,31.90
2019-05-25T01:15:39.779Z,32.38
2019-05-25T01:16:13.432Z,32.90
2019-05-25T01:16:46.336Z,32.15
2019-05-25T01:17:19.138Z,32.38
2019-05-25T01:17:52.158Z,31.55
2019-05-25T01:18:25.309Z,32.17
2019-05-25T01:18:59.248Z,31.73
2019-05-25T01:19:32.377Z,32.05
2019-05-25T01:20:06.664Z,32.08
2019-05-25T01:20:39.783Z,32.10
2019-05-25T01:21:12.868Z,32.65
2019-05-25T01:21:45.791Z,32.23
2019-05-25T01:22:18.932Z,32.28
2019-05-25T01:22:51.927Z,31.97
2019-05-25T01:23:24.950Z,32.13
2019-05-25T01:23:57.856Z,31.85
2019-05-25T01:24:43.852Z,32.33
2019-05-25T01:25:07.286Z,31.82
2019-05-25T01:25:40.577Z,32.15
2019-05-25T01:26:13.604Z,32.03
2019-05-25T01:26:46.665Z,31.80
2019-05-25T01:27:19.664Z,31.70
2019-05-25T01:27:52.669Z,32.40
2019-05-25T01:28:25.871Z,32.05
2019-05-25T01:28:58.835Z,32.17
2019-05-25T01:29:31.928Z,31.97
2019-05-25T01:30:05.389Z,32.17
2019-05-25T01:30:39.487Z,32.80
2019-05-25T01:31:12.463Z,32.13
2019-05-25T01:31:45.489Z,32.33
2019-05-25T01:32:18.432Z,32.05
2019-05-25T01:32:51.436Z,32.13
2019-05-25T01:33:24.289Z,32.75
2019-05-25T01:33:57.161Z,32.33
2019-05-25T01:34:30.158Z,32.25
2019-05-25T01:35:03.372Z,32.35
2019-05-25T01:35:36.392Z,32.20
2019-05-25T01:36:09.517Z,32.65
2019-05-25T01:36:42.596Z,32.58
2019-05-25T01:37:15.547Z,31.90
2019-05-25T01:37:48.897Z,32.45
2019-05-25T01:38:21.843Z,32.25
2019-05-25T01:38:55.017Z,32.80
2019-05-25T01:39:28.043Z,32.03
2019-05-25T01:40:01.215Z,32.13
2019-05-25T01:40:34.226Z,31.95
2019-05-25T01:41:07.201Z,31.77
2019-05-25T01:41:40.441Z,32.45
2019-05-25T01:42:13.531Z,32.58
2019-05-25T01:42:46.643Z,32.15
2019-05-25T01:43:19.821Z,32.20
2019-05-25T01:43:52.818Z,32.15
2019-05-25T01:44:25.785Z,31.90
2019-05-25T01:44:58.662Z,32.10
2019-05-25T01:45:31.748Z,32.20
2019-05-25T01:46:04.882Z,32.00
2019-05-25T01:46:38.047Z,31.60
2019-05-25T01:47:12.414Z,31.87
2019-05-25T01:47:45.448Z,31.80
2019-05-25T01:48:18.517Z,32.03
2019-05-25T01:48:51.565Z,32.15
2019-05-25T01:49:24.742Z,32.50
2019-05-25T01:49:57.953Z,32.23
2019-05-25T01:50:31.080Z,32.38
2019-05-25T01:51:04.146Z,31.87
2019-05-25T01:51:37.144Z,32.38
2019-05-25T01:52:10.172Z,31.93
2019-05-25T01:52:43.071Z,31.97
2019-05-25T01:53:16.154Z,31.75
2019-05-25T01:53:49.137Z,31.95
2019-05-25T01:54:22.085Z,32.20
2019-05-25T01:54:59.747Z,31.95
2019-05-25T01:55:29.962Z,32.30
2019-05-25T01:56:02.860Z,32.23
2019-05-25T01:56:35.827Z,32.13
2019-05-25T01:57:08.849Z,32.70
2019-05-25T01:57:42.803Z,32.28
2019-05-25T01:58:15.827Z,32.03
2019-05-25T01:58:48.834Z,32.10
2019-05-25T01:59:21.838Z,32.35
2019-05-25T01:59:54.981Z,32.17
2019-05-25T02:00:27.985Z,32.13
2019-05-25T02:01:01.077Z,31.90
2019-05-25T02:01:34.133Z,31.95
2019-05-25T02:02:07.266Z,31.42
2019-05-25T02:02:40.280Z,31.65
2019-05-25T02:03:13.296Z,32.17
2019-05-25T02:03:46.195Z,32.30
2019-05-25T02:04:19.134Z,32.23
2019-05-25T02:04:52.048Z,31.70
2019-05-25T02:05:25.025Z,31.73
2019-05-25T02:05:57.931Z,32.85
2019-05-25T02:06:30.927Z,31.77
2019-05-25T02:07:04.358Z,31.87
2019-05-25T02:07:37.355Z,31.65
2019-05-25T02:08:10.415Z,31.52
2019-05-25T02:08:43.323Z,32.50
2019-05-25T02:09:16.099Z,31.75
2019-05-25T02:09:49.143Z,32.33
2019-05-25T02:10:22.092Z,32.65
2019-05-25T02:10:55.232Z,32.25
2019-05-25T02:11:28.088Z,31.95
2019-05-25T02:12:01.179Z,32.10
2019-05-25T02:12:34.362Z,32.40
2019-05-25T02:13:07.413Z,32.00
2019-05-25T02:13:40.346Z,32.97
2019-05-25T02:14:13.235Z,32.73
2019-05-25T02:14:46.147Z,32.03
2019-05-25T02:15:19.991Z,32.05
2019-05-25T02:15:52.978Z,32.80
2019-05-25T02:16:26.005Z,32.13
2019-05-25T02:16:59.091Z,32.48
2019-05-25T02:17:32.205Z,32.20
2019-05-25T02:18:05.320Z,32.05
2019-05-25T02:18:38.470Z,32.30
2019-05-25T02:19:11.581Z,32.10
2019-05-25T02:19:44.724Z,32.10
2019-05-25T02:20:17.851Z,32.10
2019-05-25T02:20:51.210Z,32.58
2019-05-25T02:21:24.333Z,32.58
2019-05-25T02:21:57.493Z,32.23
2019-05-25T02:22:30.612Z,31.95
2019-05-25T02:23:04.199Z,32.48
2019-05-25T02:23:37.270Z,32.05
2019-05-25T02:24:10.335Z,32.60
2019-05-25T02:24:43.383Z,33.25
2019-05-25T02:25:18.724Z,32.33
2019-05-25T02:25:51.797Z,32.45
2019-05-25T02:26:24.865Z,32.70
2019-05-25T02:26:57.762Z,32.65
2019-05-25T02:27:30.801Z,32.80
2019-05-25T02:28:03.839Z,33.18
2019-05-25T02:28:36.890Z,33.02
2019-05-25T02:29:09.990Z,33.05
2019-05-25T02:29:42.945Z,32.58
2019-05-25T02:30:17.890Z,32.28
2019-05-25T02:30:50.956Z,33.33
2019-05-25T02:31:23.963Z,33.20
2019-05-25T02:31:57.030Z,32.60
2019-05-25T02:32:30.028Z,33.00
2019-05-25T02:33:03.191Z,32.83
2019-05-25T02:33:36.109Z,33.40
2019-05-25T02:34:09.289Z,33.38
2019-05-25T02:34:42.260Z,33.00
2019-05-25T02:35:24.767Z,32.93
2019-05-25T02:35:57.791Z,32.73
2019-05-25T02:36:31.845Z,33.25
2019-05-25T02:37:04.865Z,32.55
2019-05-25T02:37:37.902Z,33.05
2019-05-25T02:38:11.005Z,32.88
2019-05-25T02:38:44.091Z,32.67
2019-05-25T02:39:18.242Z,32.58
2019-05-25T02:39:51.163Z,33.00
2019-05-25T02:40:25.840Z,33.20
2019-05-25T02:40:59.283Z,33.40
2019-05-25T02:41:32.405Z,33.15
2019-05-25T02:42:05.534Z,33.13
2019-05-25T02:42:38.689Z,33.02
2019-05-25T02:43:11.611Z,32.90
2019-05-25T02:43:44.640Z,32.85
2019-05-25T02:44:17.576Z,32.90
2019-05-25T02:44:50.389Z,32.85
2019-05-25T02:45:23.421Z,33.02
2019-05-25T02:45:57.457Z,32.88
2019-05-25T02:46:30.639Z,32.40
2019-05-25T02:47:04.138Z,32.85
2019-05-25T02:47:37.280Z,32.37
2019-05-25T02:48:10.378Z,33.60
2019-05-25T02:48:43.509Z,33.00
2019-05-25T02:49:16.633Z,32.83
2019-05-25T02:49:50.179Z,32.98
2019-05-25T02:50:23.643Z,32.75
2019-05-25T02:50:56.916Z,32.60
2019-05-25T02:51:29.902Z,33.10
2019-05-25T02:52:03.094Z,32.73
2019-05-25T02:52:36.127Z,33.42
2019-05-25T02:53:09.273Z,32.45
2019-05-25T02:53:42.461Z,32.88
2019-05-25T02:54:15.507Z,33.00
2019-05-25T02:54:48.637Z,33.25
2019-05-25T02:55:33.790Z,33.13
2019-05-25T02:55:56.763Z,33.20
2019-05-25T02:56:29.882Z,32.67
2019-05-25T02:57:03.019Z,32.65
2019-05-25T02:57:36.798Z,33.45
2019-05-25T02:58:09.865Z,32.93
2019-05-25T02:58:42.767Z,33.05
2019-05-25T02:59:15.851Z,32.95
2019-05-25T02:59:48.947Z,33.10
2019-05-25T03:00:31.491Z,32.78
2019-05-25T03:01:04.714Z,33.10
2019-05-25T03:01:37.754Z,33.08
2019-05-25T03:02:10.829Z,33.30
2019-05-25T03:02:44.064Z,33.35
2019-05-25T03:03:17.267Z,33.35
2019-05-25T03:03:50.570Z,33.30
2019-05-25T03:04:23.625Z,32.60
2019-05-25T03:04:56.721Z,32.85
2019-05-25T03:05:29.908Z,33.55
2019-05-25T03:06:04.666Z,32.95
2019-05-25T03:06:38.115Z,32.80
2019-05-25T03:07:11.525Z,33.30
2019-05-25T03:07:44.663Z,32.90
2019-05-25T03:08:18.235Z,33.00
2019-05-25T03:08:54.217Z,32.75
2019-05-25T03:09:28.752Z,32.78
2019-05-25T03:10:04.761Z,33.05
2019-05-25T03:10:39.451Z,32.75
2019-05-25T03:11:14.154Z,32.53
2019-05-25T03:11:49.066Z,32.43
2019-05-25T03:12:22.469Z,32.65
2019-05-25T03:12:55.597Z,32.30
2019-05-25T03:13:31.377Z,32.08
2019-05-25T03:14:04.508Z,32.70
2019-05-25T03:14:37.575Z,32.30
2019-05-25T03:15:10.841Z,32.73
2019-05-25T03:15:44.251Z,32.55
2019-05-25T03:16:17.768Z,32.38
2019-05-25T03:16:50.821Z,32.40
2019-05-25T03:17:23.795Z,32.03
2019-05-25T03:17:56.877Z,32.90
2019-05-25T03:18:29.905Z,32.20
2019-05-25T03:19:02.954Z,32.73
2019-05-25T03:19:36.058Z,32.00
2019-05-25T03:20:09.300Z,32.75
2019-05-25T03:20:42.318Z,32.48
2019-05-25T03:21:15.836Z,33.50
2019-05-25T03:21:49.031Z,32.85
2019-05-25T03:22:22.134Z,32.08
2019-05-25T03:22:55.224Z,32.75
2019-05-25T03:23:28.363Z,32.90
2019-05-25T03:24:01.509Z,32.75
2019-05-25T03:24:34.578Z,32.35
2019-05-25T03:25:07.977Z,33.28
2019-05-25T03:25:49.690Z,32.42
2019-05-25T03:26:18.173Z,32.53
2019-05-25T03:26:51.102Z,32.60
2019-05-25T03:27:24.327Z,32.40
2019-05-25T03:27:57.410Z,32.50
2019-05-25T03:28:30.573Z,33.08
2019-05-25T03:29:03.864Z,32.45
2019-05-25T03:29:36.803Z,33.35
2019-05-25T03:30:10.364Z,32.85
2019-05-25T03:30:43.486Z,32.80
2019-05-25T03:31:16.587Z,32.95
2019-05-25T03:31:49.705Z,32.83
2019-05-25T03:32:22.762Z,33.00
2019-05-25T03:32:57.021Z,32.28
2019-05-25T03:33:30.064Z,33.23
2019-05-25T03:34:03.128Z,33.25
2019-05-25T03:34:36.056Z,33.18
2019-05-25T03:35:09.432Z,32.63
2019-05-25T03:35:42.536Z,33.15
2019-05-25T03:36:15.584Z,33.08
2019-05-25T03:36:50.208Z,32.78
2019-05-25T03:37:23.267Z,33.55
2019-05-25T03:37:56.466Z,33.60
2019-05-25T03:38:30.035Z,33.00
2019-05-25T03:39:06.796Z,33.42
2019-05-25T03:39:39.797Z,33.92
2019-05-25T03:40:13.081Z,33.13
2019-05-25T03:40:46.262Z,33.42
2019-05-25T03:41:19.209Z,32.67
2019-05-25T03:41:53.923Z,33.50
2019-05-25T03:42:26.955Z,32.55
2019-05-25T03:43:00.023Z,34.25
2019-05-25T03:43:33.163Z,33.00
2019-05-25T03:44:06.195Z,33.23
2019-05-25T03:44:41.917Z,32.80
2019-05-25T03:45:15.171Z,32.93
2019-05-25T03:45:48.523Z,32.60
2019-05-25T03:46:21.495Z,32.63
2019-05-25T03:46:54.423Z,33.20
2019-05-25T03:47:27.595Z,32.48
2019-05-25T03:48:00.684Z,33.30
2019-05-25T03:48:33.914Z,32.45
2019-05-25T03:49:06.848Z,33.60
2019-05-25T03:49:39.981Z,33.05
2019-05-25T03:50:13.405Z,33.00
2019-05-25T03:50:46.517Z,32.80
2019-05-25T03:51:20.083Z,32.90
2019-05-25T03:51:53.207Z,32.50
2019-05-25T03:52:26.376Z,32.95
2019-05-25T03:52:59.753Z,32.85
2019-05-25T03:53:32.748Z,33.05
2019-05-25T03:54:05.829Z,32.90
2019-05-25T03:54:38.791Z,32.45
2019-05-25T03:55:12.139Z,32.83
2019-05-25T03:55:45.197Z,32.70
2019-05-25T03:56:18.214Z,32.23
2019-05-25T03:56:51.276Z,32.30
2019-05-25T03:57:24.198Z,33.13
2019-05-25T03:57:58.163Z,32.67
2019-05-25T03:58:31.145Z,32.63
2019-05-25T03:59:04.305Z,32.45
2019-05-25T03:59:38.452Z,33.28
2019-05-25T04:00:12.297Z,31.77
2019-05-25T04:00:45.714Z,32.90
2019-05-25T04:01:18.741Z,32.78
2019-05-25T04:01:51.784Z,32.53
2019-05-25T04:02:24.787Z,32.23
2019-05-25T04:02:57.712Z,32.70
2019-05-25T04:03:30.797Z,33.38
2019-05-25T04:04:03.842Z,32.75
2019-05-25T04:04:36.964Z,32.50
2019-05-25T04:05:10.624Z,32.60
2019-05-25T04:05:43.723Z,32.48
2019-05-25T04:06:16.880Z,32.60
2019-05-25T04:06:49.979Z,32.67
2019-05-25T04:07:23.321Z,32.85
2019-05-25T04:07:56.304Z,32.85
2019-05-25T04:08:29.359Z,32.28
2019-05-25T04:09:03.300Z,32.93
2019-05-25T04:09:36.347Z,32.53
2019-05-25T04:10:09.473Z,32.58
2019-05-25T04:10:42.838Z,32.30
2019-05-25T04:11:15.754Z,32.75
2019-05-25T04:11:48.677Z,32.15
2019-05-25T04:12:21.703Z,33.05
2019-05-25T04:12:54.825Z,32.42
2019-05-25T04:13:27.825Z,32.25
2019-05-25T04:14:00.903Z,32.98
2019-05-25T04:14:33.944Z,32.58
2019-05-25T04:15:07.288Z,32.83
2019-05-25T04:15:40.270Z,32.65
2019-05-25T04:16:13.406Z,31.95
2019-05-25T04:16:46.454Z,32.73
2019-05-25T04:17:19.403Z,32.40
2019-05-25T04:17:52.471Z,32.50
2019-05-25T04:18:25.655Z,32.58
2019-05-25T04:18:58.575Z,32.10
2019-05-25T04:19:31.719Z,32.40
2019-05-25T04:20:04.996Z,32.05
2019-05-25T04:20:38.075Z,32.48
2019-05-25T04:21:11.028Z,32.23
2019-05-25T04:21:44.081Z,32.30
2019-05-25T04:22:17.131Z,32.40
2019-05-25T04:22:50.178Z,32.73
2019-05-25T04:23:23.159Z,32.42
2019-05-25T04:23:56.443Z,32.42
2019-05-25T04:24:29.485Z,32.03
2019-05-25T04:25:02.667Z,32.50
2019-05-25T04:25:36.241Z,32.58
2019-05-25T04:26:22.165Z,33.15
2019-05-25T04:26:44.442Z,31.93
2019-05-25T04:27:17.455Z,32.53
2019-05-25T04:27:50.435Z,32.38
2019-05-25T04:28:23.507Z,32.80
2019-05-25T04:28:56.571Z,32.58
2019-05-25T04:29:29.534Z,32.67
2019-05-25T04:30:02.970Z,32.40
2019-05-25T04:30:36.025Z,32.80
2019-05-25T04:31:08.989Z,32.85
2019-05-25T04:31:42.055Z,32.70
2019-05-25T04:32:15.104Z,32.10
2019-05-25T04:32:49.745Z,32.50
2019-05-25T04:33:22.907Z,33.08
2019-05-25T04:33:55.888Z,31.80
2019-05-25T04:34:28.824Z,32.73
2019-05-25T04:35:01.994Z,32.45
2019-05-25T04:35:34.999Z,32.58
2019-05-25T04:36:08.078Z,32.20
2019-05-25T04:36:41.161Z,33.02
2019-05-25T04:37:15.187Z,32.90
2019-05-25T04:37:48.342Z,32.70
2019-05-25T04:38:21.341Z,33.23
2019-05-25T04:38:54.462Z,32.50
2019-05-25T04:39:27.471Z,33.25
2019-05-25T04:40:00.595Z,33.25
2019-05-25T04:40:33.689Z,33.20
2019-05-25T04:41:06.671Z,32.78
2019-05-25T04:41:39.616Z,32.95
2019-05-25T04:42:12.635Z,32.90
2019-05-25T04:42:45.736Z,32.75
2019-05-25T04:43:18.819Z,33.18
2019-05-25T04:43:51.940Z,32.98
2019-05-25T04:44:24.933Z,33.67
2019-05-25T04:44:57.924Z,33.15
2019-05-25T04:45:30.887Z,32.75
2019-05-25T04:46:04.009Z,33.28
2019-05-25T04:46:36.956Z,33.25
2019-05-25T04:47:24.345Z,32.60
2019-05-25T04:47:46.174Z,33.08
2019-05-25T04:48:19.325Z,33.05
2019-05-25T04:48:52.386Z,32.90
2019-05-25T04:49:25.210Z,33.20
2019-05-25T04:49:58.239Z,33.08
2019-05-25T04:50:31.197Z,32.73
2019-05-25T04:51:04.155Z,32.67
2019-05-25T04:51:37.221Z,33.45
2019-05-25T04:52:10.266Z,33.60
2019-05-25T04:52:45.133Z,33.60
2019-05-25T04:53:18.288Z,33.73
2019-05-25T04:53:51.512Z,33.30
2019-05-25T04:54:24.507Z,33.70
2019-05-25T04:54:57.579Z,33.42
2019-05-25T04:55:30.720Z,33.33
2019-05-25T04:56:03.799Z,33.78
2019-05-25T04:56:39.895Z,33.20
2019-05-25T04:57:11.862Z,33.50
2019-05-25T04:57:44.956Z,33.78
2019-05-25T04:58:18.163Z,33.33
2019-05-25T04:58:51.257Z,33.80
2019-05-25T04:59:25.406Z,33.30
2019-05-25T04:59:59.857Z,33.15
2019-05-25T05:00:32.810Z,33.88
2019-05-25T05:01:06.443Z,33.53
2019-05-25T05:01:40.511Z,33.42
2019-05-25T05:02:13.605Z,34.03
2019-05-25T05:02:46.706Z,33.18
2019-05-25T05:03:19.798Z,34.15
2019-05-25T05:03:53.247Z,33.23
2019-05-25T05:04:26.327Z,33.83
2019-05-25T05:05:00.378Z,33.45
2019-05-25T05:05:33.466Z,33.48
2019-05-25T05:06:06.639Z,33.65
2019-05-25T05:06:39.880Z,33.73
2019-05-25T05:07:13.125Z,33.83
2019-05-25T05:07:46.217Z,33.75
2019-05-25T05:08:19.277Z,34.08
2019-05-25T05:08:52.343Z,34.00
2019-05-25T05:09:25.306Z,34.03
2019-05-25T05:10:02.500Z,33.53
2019-05-25T05:10:34.581Z,33.90
2019-05-25T05:11:07.591Z,33.88
2019-05-25T05:11:41.770Z,33.95
2019-05-25T05:12:14.953Z,34.17
2019-05-25T05:12:48.063Z,34.27
2019-05-25T05:13:21.149Z,33.90
2019-05-25T05:13:54.273Z,34.23
2019-05-25T05:14:28.949Z,34.08
2019-05-25T05:15:03.496Z,33.65
2019-05-25T05:15:36.776Z,33.48
2019-05-25T05:16:09.870Z,33.75
2019-05-25T05:16:42.974Z,33.35
2019-05-25T05:17:16.075Z,33.83
2019-05-25T05:17:49.195Z,33.78
2019-05-25T05:18:22.428Z,33.25
2019-05-25T05:18:55.739Z,33.85
2019-05-25T05:19:28.907Z,33.78
2019-05-25T05:20:02.139Z,33.48
2019-05-25T05:20:35.977Z,33.88
2019-05-25T05:21:09.064Z,33.85
2019-05-25T05:21:42.083Z,34.25
2019-05-25T05:22:15.187Z,33.67
2019-05-25T05:22:48.399Z,34.23
2019-05-25T05:23:21.529Z,33.40
2019-05-25T05:23:54.495Z,33.92
2019-05-25T05:24:27.511Z,33.78
2019-05-25T05:25:00.620Z,33.73
2019-05-25T05:25:33.631Z,33.55
2019-05-25T05:26:06.558Z,33.70
2019-05-25T05:26:54.800Z,33.50
2019-05-25T05:27:14.765Z,33.98
2019-05-25T05:27:47.867Z,33.63
2019-05-25T05:28:20.921Z,34.43
2019-05-25T05:28:54.089Z,33.80
2019-05-25T05:29:27.114Z,33.78
2019-05-25T05:30:00.050Z,33.90
2019-05-25T05:30:33.799Z,33.60
2019-05-25T05:31:20.995Z,33.83
2019-05-25T05:31:41.789Z,33.53
2019-05-25T05:32:26.523Z,33.73
2019-05-25T05:32:49.934Z,33.70
2019-05-25T05:33:23.131Z,33.75
2019-05-25T05:33:56.299Z,34.67
2019-05-25T05:34:29.492Z,33.20
2019-05-25T05:35:03.691Z,33.40
2019-05-25T05:35:39.127Z,34.03
2019-05-25T05:36:13.748Z,33.88
2019-05-25T05:36:47.710Z,33.28
2019-05-25T05:37:22.609Z,33.38
2019-05-25T05:37:58.159Z,33.43
2019-05-25T05:38:32.145Z,33.42
2019-05-25T05:39:07.703Z,33.80
2019-05-25T05:39:41.266Z,33.85
2019-05-25T05:40:14.741Z,34.13
2019-05-25T05:40:48.020Z,33.53
2019-05-25T05:41:21.331Z,34.10
2019-05-25T05:41:55.080Z,33.50
2019-05-25T05:42:31.454Z,33.50
2019-05-25T05:43:09.087Z,34.15
2019-05-25T05:43:44.019Z,33.18
2019-05-25T05:44:18.971Z,33.98
2019-05-25T05:44:55.821Z,33.67
2019-05-25T05:45:30.051Z,33.45
2019-05-25T05:46:04.630Z,34.38
2019-05-25T05:46:38.101Z,34.00
2019-05-25T05:47:14.101Z,34.08
2019-05-25T05:47:48.828Z,34.75
2019-05-25T05:48:25.370Z,34.40
2019-05-25T05:48:59.514Z,34.08
2019-05-25T05:49:32.574Z,33.63
2019-05-25T05:50:07.052Z,34.00
2019-05-25T05:50:41.511Z,34.20
2019-05-25T05:51:18.543Z,34.05
2019-05-25T05:51:54.015Z,33.78
2019-05-25T05:52:30.358Z,33.55
2019-05-25T05:53:03.750Z,34.18
2019-05-25T05:53:39.392Z,34.27
2019-05-25T05:54:15.728Z,34.83
2019-05-25T05:54:51.211Z,33.73
2019-05-25T05:55:30.775Z,33.40
2019-05-25T05:56:04.610Z,34.10
2019-05-25T05:56:37.766Z,33.95
2019-05-25T05:57:12.700Z,33.65
2019-05-25T05:57:45.741Z,33.80
2019-05-25T05:58:20.388Z,33.55
2019-05-25T05:58:53.358Z,33.80
2019-05-25T05:59:28.142Z,33.70
2019-05-25T06:00:02.413Z,34.58
2019-05-25T06:00:35.636Z,34.15
2019-05-25T06:01:08.626Z,34.18
2019-05-25T06:01:41.570Z,33.88
2019-05-25T06:02:14.514Z,33.70
2019-05-25T06:02:48.709Z,33.38
2019-05-25T06:03:21.775Z,33.38
2019-05-25T06:03:54.948Z,33.50
2019-05-25T06:04:28.475Z,33.05
2019-05-25T06:05:02.081Z,33.25
2019-05-25T06:05:36.707Z,33.28
2019-05-25T06:06:09.668Z,33.33
2019-05-25T06:06:42.883Z,32.93
2019-05-25T06:07:16.368Z,33.42
2019-05-25T06:07:49.632Z,33.20
2019-05-25T06:08:22.895Z,33.20
2019-05-25T06:08:55.987Z,33.33
2019-05-25T06:09:29.130Z,33.95
2019-05-25T06:10:03.465Z,33.05
2019-05-25T06:10:36.731Z,33.28
2019-05-25T06:11:10.349Z,34.03
2019-05-25T06:11:43.443Z,33.53
2019-05-25T06:12:17.137Z,33.65
2019-05-25T06:12:50.287Z,33.90
2019-05-25T06:13:23.381Z,33.88
2019-05-25T06:13:56.393Z,34.03
2019-05-25T06:14:29.469Z,33.58
2019-05-25T06:15:02.809Z,33.53
2019-05-25T06:15:35.987Z,33.58
2019-05-25T06:16:09.226Z,34.15
2019-05-25T06:16:42.180Z,33.75
2019-05-25T06:17:15.256Z,34.80
2019-05-25T06:17:48.412Z,33.28
2019-05-25T06:18:21.344Z,33.53
2019-05-25T06:18:54.347Z,34.33
2019-05-25T06:19:28.625Z,34.20
2019-05-25T06:20:04.363Z,33.63
2019-05-25T06:20:37.497Z,33.73
2019-05-25T06:21:10.647Z,33.85
2019-05-25T06:21:43.881Z,33.42
2019-05-25T06:22:17.086Z,33.67
2019-05-25T06:22:50.157Z,33.83
2019-05-25T06:23:23.294Z,33.33
2019-05-25T06:23:56.502Z,33.75
2019-05-25T06:24:29.695Z,33.78
2019-05-25T06:25:03.992Z,33.05
2019-05-25T06:25:37.064Z,33.47
2019-05-25T06:26:10.045Z,33.80
2019-05-25T06:26:43.538Z,33.98
2019-05-25T06:27:27.137Z,33.23
2019-05-25T06:27:51.781Z,33.65
2019-05-25T06:28:26.526Z,33.78
2019-05-25T06:28:59.647Z,33.50
2019-05-25T06:29:32.822Z,33.50
2019-05-25T06:30:06.597Z,32.85
2019-05-25T06:30:39.640Z,32.90
2019-05-25T06:31:12.675Z,33.15
2019-05-25T06:31:45.863Z,32.38
2019-05-25T06:32:19.023Z,32.50
2019-05-25T06:32:52.452Z,32.95
2019-05-25T06:33:25.593Z,32.45
2019-05-25T06:33:58.666Z,32.30
2019-05-25T06:34:31.727Z,32.55
2019-05-25T06:35:05.311Z,33.25
2019-05-25T06:35:38.881Z,32.93
2019-05-25T06:36:12.181Z,32.93
2019-05-25T06:36:45.214Z,33.38
2019-05-25T06:37:18.420Z,32.75
2019-05-25T06:37:51.540Z,33.42
2019-05-25T06:38:24.712Z,32.85
2019-05-25T06:38:57.740Z,32.60
2019-05-25T06:39:31.156Z,32.17
2019-05-25T06:40:05.130Z,32.73
2019-05-25T06:40:38.330Z,31.93
2019-05-25T06:41:11.522Z,31.62
2019-05-25T06:41:44.633Z,31.80
2019-05-25T06:42:17.759Z,31.65
2019-05-25T06:42:50.875Z,32.10
2019-05-25T06:43:23.981Z,32.20
2019-05-25T06:43:58.409Z,31.52
2019-05-25T06:44:31.594Z,31.93
2019-05-25T06:45:04.975Z,31.33
2019-05-25T06:45:38.033Z,31.62
2019-05-25T06:46:11.211Z,31.68
2019-05-25T06:46:44.170Z,32.25
2019-05-25T06:47:17.702Z,31.60
2019-05-25T06:47:50.899Z,31.65
2019-05-25T06:48:24.013Z,32.30
2019-05-25T06:48:57.056Z,31.95
2019-05-25T06:49:30.046Z,31.95
2019-05-25T06:50:03.727Z,31.65
2019-05-25T06:50:36.911Z,31.85
2019-05-25T06:51:09.870Z,31.73
2019-05-25T06:51:43.990Z,31.97
2019-05-25T06:52:17.130Z,31.83
2019-05-25T06:52:53.193Z,31.90
2019-05-25T06:53:26.201Z,32.05
2019-05-25T06:53:59.301Z,31.70
2019-05-25T06:54:32.405Z,31.80
2019-05-25T06:55:05.694Z,31.87
2019-05-25T06:55:38.694Z,31.90
2019-05-25T06:56:11.636Z,31.90
2019-05-25T06:56:44.559Z,31.55
2019-05-25T06:57:18.056Z,31.70
2019-05-25T06:57:50.998Z,31.30
2019-05-25T06:58:24.266Z,31.70
2019-05-25T06:58:57.358Z,31.20
2019-05-25T06:59:30.572Z,31.77
2019-05-25T07:00:04.916Z,31.62
2019-05-25T07:00:38.075Z,32.15
2019-05-25T07:01:11.156Z,31.82
2019-05-25T07:01:44.102Z,31.62
2019-05-25T07:02:17.085Z,31.70
2019-05-25T07:02:50.141Z,31.68
2019-05-25T07:03:23.308Z,32.40
2019-05-25T07:03:56.474Z,31.60
2019-05-25T07:04:29.441Z,31.27
2019-05-25T07:05:03.674Z,31.55
2019-05-25T07:05:36.790Z,31.70
2019-05-25T07:06:09.787Z,31.40
2019-05-25T07:06:43.115Z,31.17
2019-05-25T07:07:16.214Z,31.52
2019-05-25T07:07:49.271Z,31.20
2019-05-25T07:08:22.421Z,31.00
2019-05-25T07:08:55.495Z,30.77
2019-05-25T07:09:28.554Z,31.52
2019-05-25T07:10:01.850Z,31.12